sensor_id;sensor_type;location;lat;lon;timestamp;P1;durP1;ratioP1;P2;durP2;ratioP2
9860;SDS011;4969;52.304;4.968;2024-01-15T00:02:26;6.20;;;2.10;;
9860;SDS011;4969;52.304;4.968;2024-01-15T00:04:54;8.13;;;2.10;;
9860;SDS011;4969;52.304;4.968;2024-01-15T00:07:20;5.63;;;2.07;;
9860;SDS011;4969;52.304;4.968;2024-01-15T00:09:47;7.60;;;2.43;;
9860;SDS011;4969;52.304;4.968;2024-01-15T00:12:13;5.57;;;1.80;;
9860;SDS011;4969;52.304;4.968;2024-01-15T00:14:40;6.87;;;1.70;;
9860;SDS011;4969;52.304;4.968;2024-01-15T00:17:07;9.67;;;2.40;;
9860;SDS011;4969;52.304;4.968;2024-01-15T00:19:33;6.40;;;2.07;;
9860;SDS011;4969;52.304;4.968;2024-01-15T00:22:01;6.90;;;1.77;;
9860;SDS011;4969;52.304;4.968;2024-01-15T00:24:28;9.27;;;2.40;;
9860;SDS011;4969;52.304;4.968;2024-01-15T00:26:54;9.90;;;2.67;;
9860;SDS011;4969;52.304;4.968;2024-01-15T00:29:21;5.83;;;1.73;;
9860;SDS011;4969;52.304;4.968;2024-01-15T00:31:48;5.83;;;1.73;;
9860;SDS011;4969;52.304;4.968;2024-01-15T00:34:14;10.40;;;2.30;;
9860;SDS011;4969;52.304;4.968;2024-01-15T00:36:41;6.53;;;1.83;;
9860;SDS011;4969;52.304;4.968;2024-01-15T00:39:09;9.10;;;2.23;;
9860;SDS011;4969;52.304;4.968;2024-01-15T00:41:35;6.00;;;2.10;;
9860;SDS011;4969;52.304;4.968;2024-01-15T00:44:02;8.83;;;2.30;;
9860;SDS011;4969;52.304;4.968;2024-01-15T00:46:29;7.63;;;2.40;;
9860;SDS011;4969;52.304;4.968;2024-01-15T00:48:55;7.50;;;2.00;;
9860;SDS011;4969;52.304;4.968;2024-01-15T00:51:22;8.63;;;2.47;;
9860;SDS011;4969;52.304;4.968;2024-01-15T00:53:48;7.70;;;1.77;;
9860;SDS011;4969;52.304;4.968;2024-01-15T00:56:16;4.40;;;1.33;;
9860;SDS011;4969;52.304;4.968;2024-01-15T00:58:43;6.83;;;2.17;;
9860;SDS011;4969;52.304;4.968;2024-01-15T01:01:09;4.80;;;1.80;;
9860;SDS011;4969;52.304;4.968;2024-01-15T01:03:36;7.10;;;1.80;;
9860;SDS011;4969;52.304;4.968;2024-01-15T01:06:03;6.70;;;1.97;;
9860;SDS011;4969;52.304;4.968;2024-01-15T01:08:29;7.23;;;2.00;;
9860;SDS011;4969;52.304;4.968;2024-01-15T01:10:56;9.17;;;1.63;;
9860;SDS011;4969;52.304;4.968;2024-01-15T01:13:24;6.97;;;1.73;;
9860;SDS011;4969;52.304;4.968;2024-01-15T01:15:50;6.80;;;1.47;;
9860;SDS011;4969;52.304;4.968;2024-01-15T01:18:17;5.77;;;1.80;;
9860;SDS011;4969;52.304;4.968;2024-01-15T01:20:43;6.50;;;1.60;;
9860;SDS011;4969;52.304;4.968;2024-01-15T01:23:10;8.97;;;2.30;;
9860;SDS011;4969;52.304;4.968;2024-01-15T01:25:36;6.80;;;1.90;;
9860;SDS011;4969;52.304;4.968;2024-01-15T01:28:03;5.63;;;1.90;;
9860;SDS011;4969;52.304;4.968;2024-01-15T01:30:31;7.70;;;2.10;;
9860;SDS011;4969;52.304;4.968;2024-01-15T01:32:58;6.43;;;1.90;;
9860;SDS011;4969;52.304;4.968;2024-01-15T01:35:24;7.00;;;1.90;;
9860;SDS011;4969;52.304;4.968;2024-01-15T01:37:51;6.30;;;1.93;;
9860;SDS011;4969;52.304;4.968;2024-01-15T01:40:17;8.57;;;2.17;;
9860;SDS011;4969;52.304;4.968;2024-01-15T01:42:44;7.10;;;2.03;;
9860;SDS011;4969;52.304;4.968;2024-01-15T01:45:10;5.07;;;1.63;;
9860;SDS011;4969;52.304;4.968;2024-01-15T01:47:38;5.50;;;1.33;;
9860;SDS011;4969;52.304;4.968;2024-01-15T01:50:05;3.90;;;0.93;;
9860;SDS011;4969;52.304;4.968;2024-01-15T01:52:32;2.70;;;0.93;;
9860;SDS011;4969;52.304;4.968;2024-01-15T01:55:00;1.63;;;0.60;;
9860;SDS011;4969;52.304;4.968;2024-01-15T01:57:29;4.07;;;1.10;;
9860;SDS011;4969;52.304;4.968;2024-01-15T01:59:57;2.67;;;0.90;;
9860;SDS011;4969;52.304;4.968;2024-01-15T02:02:24;2.83;;;1.10;;
9860;SDS011;4969;52.304;4.968;2024-01-15T02:04:53;3.97;;;1.03;;
9860;SDS011;4969;52.304;4.968;2024-01-15T02:07:19;4.70;;;1.47;;
9860;SDS011;4969;52.304;4.968;2024-01-15T02:09:47;3.60;;;1.00;;
9860;SDS011;4969;52.304;4.968;2024-01-15T02:12:13;3.57;;;1.33;;
9860;SDS011;4969;52.304;4.968;2024-01-15T02:14:40;6.57;;;1.43;;
9860;SDS011;4969;52.304;4.968;2024-01-15T02:17:07;4.07;;;1.07;;
9860;SDS011;4969;52.304;4.968;2024-01-15T02:19:33;2.47;;;1.30;;
9860;SDS011;4969;52.304;4.968;2024-01-15T02:22:02;5.67;;;1.60;;
9860;SDS011;4969;52.304;4.968;2024-01-15T02:24:30;4.97;;;1.57;;
9860;SDS011;4969;52.304;4.968;2024-01-15T02:26:57;4.97;;;1.80;;
9860;SDS011;4969;52.304;4.968;2024-01-15T02:29:24;3.63;;;1.30;;
9860;SDS011;4969;52.304;4.968;2024-01-15T02:31:50;4.90;;;1.50;;
9860;SDS011;4969;52.304;4.968;2024-01-15T02:34:17;3.30;;;1.20;;
9860;SDS011;4969;52.304;4.968;2024-01-15T02:36:43;3.60;;;1.23;;
9860;SDS011;4969;52.304;4.968;2024-01-15T02:39:10;4.77;;;1.23;;
9860;SDS011;4969;52.304;4.968;2024-01-15T02:41:38;4.73;;;1.40;;
9860;SDS011;4969;52.304;4.968;2024-01-15T02:44:04;3.60;;;1.30;;
9860;SDS011;4969;52.304;4.968;2024-01-15T02:46:31;5.33;;;1.60;;
9860;SDS011;4969;52.304;4.968;2024-01-15T02:48:58;5.03;;;1.30;;
9860;SDS011;4969;52.304;4.968;2024-01-15T02:51:24;5.77;;;1.60;;
9860;SDS011;4969;52.304;4.968;2024-01-15T02:53:51;4.77;;;1.30;;
9860;SDS011;4969;52.304;4.968;2024-01-15T02:56:18;8.17;;;1.90;;
9860;SDS011;4969;52.304;4.968;2024-01-15T02:58:46;7.90;;;1.40;;
9860;SDS011;4969;52.304;4.968;2024-01-15T03:01:12;5.27;;;1.40;;
9860;SDS011;4969;52.304;4.968;2024-01-15T03:03:39;6.03;;;1.53;;
9860;SDS011;4969;52.304;4.968;2024-01-15T03:06:06;7.27;;;2.00;;
9860;SDS011;4969;52.304;4.968;2024-01-15T03:08:32;11.00;;;1.87;;
9860;SDS011;4969;52.304;4.968;2024-01-15T03:11:00;6.93;;;1.80;;
9860;SDS011;4969;52.304;4.968;2024-01-15T03:13:26;4.77;;;1.23;;
9860;SDS011;4969;52.304;4.968;2024-01-15T03:15:54;3.40;;;1.20;;
9860;SDS011;4969;52.304;4.968;2024-01-15T03:18:21;3.00;;;1.03;;
9860;SDS011;4969;52.304;4.968;2024-01-15T03:20:47;5.73;;;1.30;;
9860;SDS011;4969;52.304;4.968;2024-01-15T03:23:14;2.70;;;1.20;;
9860;SDS011;4969;52.304;4.968;2024-01-15T03:25:40;5.83;;;1.20;;
9860;SDS011;4969;52.304;4.968;2024-01-15T03:28:07;4.07;;;1.30;;
9860;SDS011;4969;52.304;4.968;2024-01-15T03:30:34;3.97;;;1.10;;
9860;SDS011;4969;52.304;4.968;2024-01-15T03:33:02;7.30;;;1.70;;
9860;SDS011;4969;52.304;4.968;2024-01-15T03:35:28;4.70;;;1.13;;
9860;SDS011;4969;52.304;4.968;2024-01-15T03:37:56;3.40;;;1.23;;
9860;SDS011;4969;52.304;4.968;2024-01-15T03:40:22;3.23;;;1.27;;
9860;SDS011;4969;52.304;4.968;2024-01-15T03:42:49;7.30;;;1.87;;
9860;SDS011;4969;52.304;4.968;2024-01-15T03:45:15;6.53;;;1.70;;
9860;SDS011;4969;52.304;4.968;2024-01-15T03:47:42;4.47;;;1.40;;
9860;SDS011;4969;52.304;4.968;2024-01-15T03:50:10;8.50;;;1.87;;
9860;SDS011;4969;52.304;4.968;2024-01-15T03:52:36;4.20;;;1.50;;
9860;SDS011;4969;52.304;4.968;2024-01-15T03:55:03;3.77;;;1.10;;
9860;SDS011;4969;52.304;4.968;2024-01-15T03:57:31;5.40;;;1.30;;
9860;SDS011;4969;52.304;4.968;2024-01-15T03:59:57;3.07;;;1.20;;
9860;SDS011;4969;52.304;4.968;2024-01-15T04:02:24;1.97;;;0.73;;
9860;SDS011;4969;52.304;4.968;2024-01-15T04:04:50;3.50;;;0.90;;
9860;SDS011;4969;52.304;4.968;2024-01-15T04:07:18;2.93;;;0.90;;
9860;SDS011;4969;52.304;4.968;2024-01-15T04:09:45;3.03;;;1.00;;
9860;SDS011;4969;52.304;4.968;2024-01-15T04:12:11;2.20;;;0.90;;
9860;SDS011;4969;52.304;4.968;2024-01-15T04:14:38;2.73;;;1.20;;
9860;SDS011;4969;52.304;4.968;2024-01-15T04:17:04;3.57;;;1.10;;
9860;SDS011;4969;52.304;4.968;2024-01-15T04:19:31;5.00;;;1.10;;
9860;SDS011;4969;52.304;4.968;2024-01-15T04:21:58;6.60;;;1.80;;
9860;SDS011;4969;52.304;4.968;2024-01-15T04:24:25;4.60;;;1.30;;
9860;SDS011;4969;52.304;4.968;2024-01-15T04:26:52;5.90;;;1.57;;
9860;SDS011;4969;52.304;4.968;2024-01-15T04:29:18;5.33;;;1.60;;
9860;SDS011;4969;52.304;4.968;2024-01-15T04:31:45;6.17;;;1.80;;
9860;SDS011;4969;52.304;4.968;2024-01-15T04:34:11;9.10;;;2.30;;
9860;SDS011;4969;52.304;4.968;2024-01-15T04:36:38;7.53;;;1.90;;
9860;SDS011;4969;52.304;4.968;2024-01-15T04:39:06;6.87;;;1.87;;
9860;SDS011;4969;52.304;4.968;2024-01-15T04:41:34;5.97;;;1.67;;
9860;SDS011;4969;52.304;4.968;2024-01-15T04:44:00;6.23;;;1.50;;
9860;SDS011;4969;52.304;4.968;2024-01-15T04:46:27;5.30;;;1.50;;
9860;SDS011;4969;52.304;4.968;2024-01-15T04:48:54;8.30;;;1.80;;
9860;SDS011;4969;52.304;4.968;2024-01-15T04:51:20;6.10;;;1.70;;
9860;SDS011;4969;52.304;4.968;2024-01-15T04:53:47;3.83;;;1.40;;
9860;SDS011;4969;52.304;4.968;2024-01-15T04:56:13;3.87;;;1.33;;
9860;SDS011;4969;52.304;4.968;2024-01-15T04:58:41;2.83;;;1.27;;
9860;SDS011;4969;52.304;4.968;2024-01-15T05:01:08;5.07;;;1.30;;
9860;SDS011;4969;52.304;4.968;2024-01-15T05:03:35;3.93;;;1.23;;
9860;SDS011;4969;52.304;4.968;2024-01-15T05:06:01;5.77;;;1.43;;
9860;SDS011;4969;52.304;4.968;2024-01-15T05:08:28;5.63;;;1.57;;
9860;SDS011;4969;52.304;4.968;2024-01-15T05:10:55;5.60;;;1.60;;
9860;SDS011;4969;52.304;4.968;2024-01-15T05:13:21;5.37;;;1.60;;
9860;SDS011;4969;52.304;4.968;2024-01-15T05:15:49;5.43;;;1.57;;
9860;SDS011;4969;52.304;4.968;2024-01-15T05:18:16;4.10;;;1.60;;
9860;SDS011;4969;52.304;4.968;2024-01-15T05:20:43;5.07;;;1.50;;
9860;SDS011;4969;52.304;4.968;2024-01-15T05:23:09;4.83;;;1.70;;
9860;SDS011;4969;52.304;4.968;2024-01-15T05:25:36;5.60;;;1.57;;
9860;SDS011;4969;52.304;4.968;2024-01-15T05:28:02;4.60;;;1.27;;
9860;SDS011;4969;52.304;4.968;2024-01-15T05:30:31;5.87;;;1.20;;
9860;SDS011;4969;52.304;4.968;2024-01-15T05:32:58;6.57;;;1.60;;
9860;SDS011;4969;52.304;4.968;2024-01-15T05:35:26;4.43;;;1.63;;
9860;SDS011;4969;52.304;4.968;2024-01-15T05:37:52;4.73;;;1.87;;
9860;SDS011;4969;52.304;4.968;2024-01-15T05:40:19;5.27;;;1.70;;
9860;SDS011;4969;52.304;4.968;2024-01-15T05:42:46;3.73;;;1.53;;
9860;SDS011;4969;52.304;4.968;2024-01-15T05:45:12;3.73;;;1.33;;
9860;SDS011;4969;52.304;4.968;2024-01-15T05:47:39;5.03;;;1.63;;
9860;SDS011;4969;52.304;4.968;2024-01-15T05:50:07;4.63;;;1.53;;
9860;SDS011;4969;52.304;4.968;2024-01-15T05:52:34;8.50;;;1.40;;
9860;SDS011;4969;52.304;4.968;2024-01-15T05:55:01;2.87;;;1.20;;
9860;SDS011;4969;52.304;4.968;2024-01-15T05:57:28;6.53;;;1.40;;
9860;SDS011;4969;52.304;4.968;2024-01-15T05:59:54;7.70;;;1.43;;
9860;SDS011;4969;52.304;4.968;2024-01-15T06:02:21;4.17;;;1.20;;
9860;SDS011;4969;52.304;4.968;2024-01-15T06:04:48;3.40;;;1.20;;
9860;SDS011;4969;52.304;4.968;2024-01-15T06:07:15;5.40;;;1.80;;
9860;SDS011;4969;52.304;4.968;2024-01-15T06:09:42;5.43;;;1.60;;
9860;SDS011;4969;52.304;4.968;2024-01-15T06:12:09;3.23;;;1.40;;
9860;SDS011;4969;52.304;4.968;2024-01-15T06:14:35;4.07;;;1.50;;
9860;SDS011;4969;52.304;4.968;2024-01-15T06:17:02;4.40;;;1.47;;
9860;SDS011;4969;52.304;4.968;2024-01-15T06:19:28;5.70;;;1.43;;
9860;SDS011;4969;52.304;4.968;2024-01-15T06:21:55;3.13;;;1.60;;
9860;SDS011;4969;52.304;4.968;2024-01-15T06:24:23;8.13;;;1.70;;
9860;SDS011;4969;52.304;4.968;2024-01-15T06:26:49;4.77;;;1.70;;
9860;SDS011;4969;52.304;4.968;2024-01-15T06:29:16;4.47;;;1.27;;
9860;SDS011;4969;52.304;4.968;2024-01-15T06:31:43;4.40;;;1.70;;
9860;SDS011;4969;52.304;4.968;2024-01-15T06:34:09;4.20;;;1.87;;
9860;SDS011;4969;52.304;4.968;2024-01-15T06:36:36;5.83;;;1.70;;
9860;SDS011;4969;52.304;4.968;2024-01-15T06:39:02;5.70;;;1.63;;
9860;SDS011;4969;52.304;4.968;2024-01-15T06:41:31;6.37;;;1.77;;
9860;SDS011;4969;52.304;4.968;2024-01-15T06:43:58;2.33;;;1.00;;
9860;SDS011;4969;52.304;4.968;2024-01-15T06:46:24;4.70;;;1.13;;
9860;SDS011;4969;52.304;4.968;2024-01-15T06:48:51;4.30;;;1.00;;
9860;SDS011;4969;52.304;4.968;2024-01-15T06:51:17;1.40;;;0.70;;
9860;SDS011;4969;52.304;4.968;2024-01-15T06:53:44;1.80;;;0.80;;
9860;SDS011;4969;52.304;4.968;2024-01-15T06:56:10;1.53;;;0.83;;
9860;SDS011;4969;52.304;4.968;2024-01-15T06:58:38;2.50;;;1.10;;
9860;SDS011;4969;52.304;4.968;2024-01-15T07:01:05;4.00;;;0.90;;
9860;SDS011;4969;52.304;4.968;2024-01-15T07:03:32;1.53;;;0.70;;
9860;SDS011;4969;52.304;4.968;2024-01-15T07:05:59;3.20;;;1.33;;
9860;SDS011;4969;52.304;4.968;2024-01-15T07:08:26;3.40;;;1.00;;
9860;SDS011;4969;52.304;4.968;2024-01-15T07:10:52;4.47;;;1.03;;
9860;SDS011;4969;52.304;4.968;2024-01-15T07:13:19;3.63;;;1.23;;
9860;SDS011;4969;52.304;4.968;2024-01-15T07:15:47;3.23;;;1.27;;
9860;SDS011;4969;52.304;4.968;2024-01-15T07:18:13;3.53;;;1.10;;
9860;SDS011;4969;52.304;4.968;2024-01-15T07:20:40;5.10;;;1.40;;
9860;SDS011;4969;52.304;4.968;2024-01-15T07:23:07;4.67;;;1.50;;
9860;SDS011;4969;52.304;4.968;2024-01-15T07:25:33;5.73;;;1.67;;
9860;SDS011;4969;52.304;4.968;2024-01-15T07:28:00;3.00;;;1.40;;
9860;SDS011;4969;52.304;4.968;2024-01-15T07:30:27;4.63;;;1.57;;
9860;SDS011;4969;52.304;4.968;2024-01-15T07:32:55;4.67;;;1.00;;
9860;SDS011;4969;52.304;4.968;2024-01-15T07:35:21;4.50;;;1.67;;
9860;SDS011;4969;52.304;4.968;2024-01-15T07:37:48;4.40;;;1.47;;
9860;SDS011;4969;52.304;4.968;2024-01-15T07:40:14;2.73;;;1.33;;
9860;SDS011;4969;52.304;4.968;2024-01-15T07:42:41;4.17;;;1.37;;
9860;SDS011;4969;52.304;4.968;2024-01-15T07:45:08;4.67;;;1.50;;
9860;SDS011;4969;52.304;4.968;2024-01-15T07:47:34;5.07;;;1.63;;
9860;SDS011;4969;52.304;4.968;2024-01-15T07:50:02;8.10;;;2.00;;
9860;SDS011;4969;52.304;4.968;2024-01-15T07:52:29;4.37;;;1.60;;
9860;SDS011;4969;52.304;4.968;2024-01-15T07:54:56;3.87;;;1.73;;
9860;SDS011;4969;52.304;4.968;2024-01-15T07:57:24;4.80;;;1.60;;
9860;SDS011;4969;52.304;4.968;2024-01-15T07:59:51;4.67;;;1.57;;
9860;SDS011;4969;52.304;4.968;2024-01-15T08:02:17;4.77;;;1.23;;
9860;SDS011;4969;52.304;4.968;2024-01-15T08:04:44;6.10;;;1.70;;
9860;SDS011;4969;52.304;4.968;2024-01-15T08:07:12;5.30;;;1.67;;
9860;SDS011;4969;52.304;4.968;2024-01-15T08:09:38;5.40;;;1.50;;
9860;SDS011;4969;52.304;4.968;2024-01-15T08:12:05;4.90;;;1.70;;
9860;SDS011;4969;52.304;4.968;2024-01-15T08:14:32;3.47;;;1.70;;
9860;SDS011;4969;52.304;4.968;2024-01-15T08:16:59;5.50;;;1.83;;
9860;SDS011;4969;52.304;4.968;2024-01-15T08:19:26;6.43;;;2.00;;
9860;SDS011;4969;52.304;4.968;2024-01-15T08:21:52;3.10;;;1.50;;
9860;SDS011;4969;52.304;4.968;2024-01-15T08:26:55;5.63;;;1.63;;
9860;SDS011;4969;52.304;4.968;2024-01-15T08:29:22;4.37;;;1.77;;
9860;SDS011;4969;52.304;4.968;2024-01-15T08:31:49;5.07;;;1.87;;
9860;SDS011;4969;52.304;4.968;2024-01-15T08:34:16;4.37;;;1.53;;
9860;SDS011;4969;52.304;4.968;2024-01-15T08:36:43;5.43;;;1.70;;
9860;SDS011;4969;52.304;4.968;2024-01-15T08:39:09;5.20;;;1.57;;
9860;SDS011;4969;52.304;4.968;2024-01-15T08:41:36;4.37;;;1.37;;
9860;SDS011;4969;52.304;4.968;2024-01-15T08:44:04;3.77;;;1.47;;
9860;SDS011;4969;52.304;4.968;2024-01-15T08:46:30;5.00;;;1.60;;
9860;SDS011;4969;52.304;4.968;2024-01-15T08:48:57;4.83;;;1.30;;
9860;SDS011;4969;52.304;4.968;2024-01-15T08:51:23;7.30;;;1.50;;
9860;SDS011;4969;52.304;4.968;2024-01-15T08:53:50;6.57;;;1.47;;
9860;SDS011;4969;52.304;4.968;2024-01-15T08:56:17;4.80;;;1.57;;
9860;SDS011;4969;52.304;4.968;2024-01-15T08:58:43;4.90;;;1.80;;
9860;SDS011;4969;52.304;4.968;2024-01-15T09:01:12;3.57;;;1.13;;
9860;SDS011;4969;52.304;4.968;2024-01-15T09:03:39;5.70;;;1.47;;
9860;SDS011;4969;52.304;4.968;2024-01-15T09:06:06;5.67;;;1.73;;
9860;SDS011;4969;52.304;4.968;2024-01-15T09:08:34;7.37;;;1.90;;
9860;SDS011;4969;52.304;4.968;2024-01-15T09:11:01;5.00;;;1.30;;
9860;SDS011;4969;52.304;4.968;2024-01-15T09:13:28;4.53;;;1.50;;
9860;SDS011;4969;52.304;4.968;2024-01-15T09:15:55;5.53;;;1.60;;
9860;SDS011;4969;52.304;4.968;2024-01-15T09:18:23;7.50;;;1.77;;
9860;SDS011;4969;52.304;4.968;2024-01-15T09:20:50;4.70;;;1.70;;
9860;SDS011;4969;52.304;4.968;2024-01-15T09:23:17;5.33;;;1.83;;
9860;SDS011;4969;52.304;4.968;2024-01-15T09:25:43;4.83;;;1.80;;
9860;SDS011;4969;52.304;4.968;2024-01-15T09:28:10;10.93;;;2.03;;
9860;SDS011;4969;52.304;4.968;2024-01-15T09:30:36;8.83;;;2.40;;
9860;SDS011;4969;52.304;4.968;2024-01-15T09:33:03;5.33;;;1.77;;
9860;SDS011;4969;52.304;4.968;2024-01-15T09:35:31;7.40;;;2.20;;
9860;SDS011;4969;52.304;4.968;2024-01-15T09:37:58;5.70;;;2.00;;
9860;SDS011;4969;52.304;4.968;2024-01-15T09:40:25;6.67;;;1.90;;
9860;SDS011;4969;52.304;4.968;2024-01-15T09:42:57;10.17;;;2.20;;
9860;SDS011;4969;52.304;4.968;2024-01-15T09:45:24;6.23;;;1.83;;
9860;SDS011;4969;52.304;4.968;2024-01-15T09:47:52;6.53;;;2.00;;
9860;SDS011;4969;52.304;4.968;2024-01-15T09:50:18;5.50;;;1.73;;
9860;SDS011;4969;52.304;4.968;2024-01-15T09:52:46;3.17;;;1.23;;
9860;SDS011;4969;52.304;4.968;2024-01-15T09:55:14;5.87;;;1.80;;
9860;SDS011;4969;52.304;4.968;2024-01-15T09:57:43;4.90;;;1.37;;
9860;SDS011;4969;52.304;4.968;2024-01-15T10:00:10;8.93;;;2.10;;
9860;SDS011;4969;52.304;4.968;2024-01-15T10:02:38;6.57;;;1.73;;
9860;SDS011;4969;52.304;4.968;2024-01-15T10:05:05;5.40;;;1.90;;
9860;SDS011;4969;52.304;4.968;2024-01-15T10:07:32;5.20;;;1.60;;
9860;SDS011;4969;52.304;4.968;2024-01-15T10:10:03;10.50;;;2.53;;
9860;SDS011;4969;52.304;4.968;2024-01-15T10:12:30;5.63;;;2.20;;
9860;SDS011;4969;52.304;4.968;2024-01-15T10:14:57;8.03;;;1.77;;
9860;SDS011;4969;52.304;4.968;2024-01-15T10:17:23;7.20;;;2.13;;
9860;SDS011;4969;52.304;4.968;2024-01-15T10:19:51;6.60;;;2.20;;
9860;SDS011;4969;52.304;4.968;2024-01-15T10:22:17;5.93;;;1.80;;
9860;SDS011;4969;52.304;4.968;2024-01-15T10:24:44;5.77;;;1.90;;
9860;SDS011;4969;52.304;4.968;2024-01-15T10:27:13;3.83;;;1.40;;
9860;SDS011;4969;52.304;4.968;2024-01-15T10:29:40;3.83;;;1.30;;
9860;SDS011;4969;52.304;4.968;2024-01-15T10:32:07;5.67;;;1.30;;
9860;SDS011;4969;52.304;4.968;2024-01-15T10:34:37;5.20;;;1.90;;
9860;SDS011;4969;52.304;4.968;2024-01-15T10:37:04;3.57;;;1.23;;
9860;SDS011;4969;52.304;4.968;2024-01-15T10:39:32;4.87;;;1.43;;
9860;SDS011;4969;52.304;4.968;2024-01-15T10:41:59;4.60;;;1.27;;
9860;SDS011;4969;52.304;4.968;2024-01-15T10:44:27;4.13;;;1.40;;
9860;SDS011;4969;52.304;4.968;2024-01-15T10:46:54;6.40;;;1.60;;
9860;SDS011;4969;52.304;4.968;2024-01-15T10:49:22;4.13;;;1.20;;
9860;SDS011;4969;52.304;4.968;2024-01-15T10:51:51;4.63;;;1.20;;
9860;SDS011;4969;52.304;4.968;2024-01-15T10:54:18;3.50;;;1.53;;
9860;SDS011;4969;52.304;4.968;2024-01-15T10:56:45;4.23;;;1.13;;
9860;SDS011;4969;52.304;4.968;2024-01-15T10:59:13;2.73;;;1.00;;
9860;SDS011;4969;52.304;4.968;2024-01-15T11:01:41;3.83;;;1.07;;
9860;SDS011;4969;52.304;4.968;2024-01-15T11:04:08;3.97;;;1.50;;
9860;SDS011;4969;52.304;4.968;2024-01-15T11:06:41;2.00;;;1.30;;
9860;SDS011;4969;52.304;4.968;2024-01-15T11:09:08;3.13;;;1.20;;
9860;SDS011;4969;52.304;4.968;2024-01-15T11:11:35;5.17;;;1.30;;
9860;SDS011;4969;52.304;4.968;2024-01-15T11:14:02;4.07;;;1.30;;
9860;SDS011;4969;52.304;4.968;2024-01-15T11:16:52;2.83;;;1.10;;
9860;SDS011;4969;52.304;4.968;2024-01-15T11:19:22;4.63;;;1.40;;
9860;SDS011;4969;52.304;4.968;2024-01-15T11:21:48;2.80;;;1.13;;
9860;SDS011;4969;52.304;4.968;2024-01-15T11:24:34;3.87;;;1.00;;
9860;SDS011;4969;52.304;4.968;2024-01-15T11:27:02;2.10;;;0.93;;
9860;SDS011;4969;52.304;4.968;2024-01-15T11:29:29;1.53;;;0.60;;
9860;SDS011;4969;52.304;4.968;2024-01-15T11:31:58;0.77;;;0.50;;
9860;SDS011;4969;52.304;4.968;2024-01-15T11:37:27;1.63;;;0.50;;
9860;SDS011;4969;52.304;4.968;2024-01-15T11:39:55;2.93;;;1.00;;
9860;SDS011;4969;52.304;4.968;2024-01-15T11:42:26;3.00;;;0.90;;
9860;SDS011;4969;52.304;4.968;2024-01-15T11:44:53;2.40;;;0.90;;
9860;SDS011;4969;52.304;4.968;2024-01-15T11:47:28;5.30;;;1.20;;
9860;SDS011;4969;52.304;4.968;2024-01-15T11:50:14;3.47;;;1.43;;
9860;SDS011;4969;52.304;4.968;2024-01-15T11:52:41;4.37;;;1.33;;
9860;SDS011;4969;52.304;4.968;2024-01-15T11:55:16;4.47;;;1.47;;
9860;SDS011;4969;52.304;4.968;2024-01-15T11:57:46;4.13;;;1.57;;
9860;SDS011;4969;52.304;4.968;2024-01-15T12:00:14;5.50;;;1.50;;
9860;SDS011;4969;52.304;4.968;2024-01-15T12:02:43;3.90;;;1.40;;
9860;SDS011;4969;52.304;4.968;2024-01-15T12:05:10;6.00;;;1.80;;
9860;SDS011;4969;52.304;4.968;2024-01-15T12:07:38;4.13;;;1.83;;
9860;SDS011;4969;52.304;4.968;2024-01-15T12:10:08;7.13;;;1.83;;
9860;SDS011;4969;52.304;4.968;2024-01-15T12:12:40;5.47;;;2.10;;
9860;SDS011;4969;52.304;4.968;2024-01-15T12:15:25;6.70;;;2.33;;
9860;SDS011;4969;52.304;4.968;2024-01-15T12:17:55;6.57;;;1.93;;
9860;SDS011;4969;52.304;4.968;2024-01-15T12:20:23;5.17;;;1.60;;
9860;SDS011;4969;52.304;4.968;2024-01-15T12:22:50;4.30;;;1.63;;
9860;SDS011;4969;52.304;4.968;2024-01-15T12:25:17;4.20;;;1.53;;
9860;SDS011;4969;52.304;4.968;2024-01-15T12:27:44;4.57;;;1.77;;
9860;SDS011;4969;52.304;4.968;2024-01-15T12:30:11;6.10;;;1.80;;
9860;SDS011;4969;52.304;4.968;2024-01-15T12:32:38;5.80;;;2.00;;
9860;SDS011;4969;52.304;4.968;2024-01-15T12:35:07;3.37;;;1.53;;
9860;SDS011;4969;52.304;4.968;2024-01-15T12:37:35;5.67;;;1.70;;
9860;SDS011;4969;52.304;4.968;2024-01-15T12:40:01;7.87;;;2.50;;
9860;SDS011;4969;52.304;4.968;2024-01-15T12:42:29;10.30;;;2.27;;
9860;SDS011;4969;52.304;4.968;2024-01-15T12:44:56;7.33;;;2.00;;
9860;SDS011;4969;52.304;4.968;2024-01-15T12:47:23;6.33;;;2.17;;
9860;SDS011;4969;52.304;4.968;2024-01-15T12:49:51;6.40;;;1.77;;
9860;SDS011;4969;52.304;4.968;2024-01-15T12:52:20;8.80;;;2.60;;
9860;SDS011;4969;52.304;4.968;2024-01-15T12:54:47;7.10;;;2.60;;
9860;SDS011;4969;52.304;4.968;2024-01-15T12:57:13;11.43;;;2.20;;
9860;SDS011;4969;52.304;4.968;2024-01-15T12:59:40;7.50;;;2.20;;
9860;SDS011;4969;52.304;4.968;2024-01-15T13:02:06;6.70;;;2.23;;
9860;SDS011;4969;52.304;4.968;2024-01-15T13:04:33;3.97;;;1.40;;
9860;SDS011;4969;52.304;4.968;2024-01-15T13:07:00;4.13;;;1.47;;
9860;SDS011;4969;52.304;4.968;2024-01-15T13:09:27;10.17;;;1.83;;
9860;SDS011;4969;52.304;4.968;2024-01-15T13:11:54;5.07;;;1.77;;
9860;SDS011;4969;52.304;4.968;2024-01-15T13:14:21;5.93;;;1.67;;
9860;SDS011;4969;52.304;4.968;2024-01-15T13:16:48;4.20;;;1.53;;
9860;SDS011;4969;52.304;4.968;2024-01-15T13:19:14;8.20;;;2.07;;
9860;SDS011;4969;52.304;4.968;2024-01-15T13:21:41;5.67;;;1.90;;
9860;SDS011;4969;52.304;4.968;2024-01-15T13:24:08;5.97;;;1.70;;
9860;SDS011;4969;52.304;4.968;2024-01-15T13:26:36;4.23;;;1.97;;
9860;SDS011;4969;52.304;4.968;2024-01-15T13:29:02;6.13;;;2.00;;
9860;SDS011;4969;52.304;4.968;2024-01-15T13:31:29;6.97;;;2.47;;
9860;SDS011;4969;52.304;4.968;2024-01-15T13:33:56;5.20;;;2.77;;
9860;SDS011;4969;52.304;4.968;2024-01-15T13:36:23;8.13;;;5.03;;
9860;SDS011;4969;52.304;4.968;2024-01-15T13:38:49;8.63;;;3.93;;
9860;SDS011;4969;52.304;4.968;2024-01-15T13:41:17;7.83;;;3.60;;
9860;SDS011;4969;52.304;4.968;2024-01-15T13:43:47;7.47;;;2.30;;
9860;SDS011;4969;52.304;4.968;2024-01-15T13:46:15;6.70;;;2.27;;
9860;SDS011;4969;52.304;4.968;2024-01-15T13:48:42;8.60;;;2.20;;
9860;SDS011;4969;52.304;4.968;2024-01-15T13:51:09;7.13;;;1.90;;
9860;SDS011;4969;52.304;4.968;2024-01-15T13:53:37;7.90;;;2.03;;
9860;SDS011;4969;52.304;4.968;2024-01-15T13:56:04;8.67;;;2.37;;
9860;SDS011;4969;52.304;4.968;2024-01-15T13:58:31;6.97;;;2.60;;
9860;SDS011;4969;52.304;4.968;2024-01-15T14:00:59;12.20;;;2.50;;
9860;SDS011;4969;52.304;4.968;2024-01-15T14:03:25;8.47;;;2.60;;
9860;SDS011;4969;52.304;4.968;2024-01-15T14:05:52;7.50;;;2.17;;
9860;SDS011;4969;52.304;4.968;2024-01-15T14:08:19;9.67;;;2.40;;
9860;SDS011;4969;52.304;4.968;2024-01-15T14:10:45;9.70;;;2.20;;
9860;SDS011;4969;52.304;4.968;2024-01-15T14:13:12;6.53;;;2.20;;
9860;SDS011;4969;52.304;4.968;2024-01-15T14:15:38;7.33;;;2.30;;
9860;SDS011;4969;52.304;4.968;2024-01-15T14:18:08;8.77;;;2.73;;
9860;SDS011;4969;52.304;4.968;2024-01-15T14:20:34;6.97;;;1.80;;
9860;SDS011;4969;52.304;4.968;2024-01-15T14:23:01;9.17;;;2.30;;
9860;SDS011;4969;52.304;4.968;2024-01-15T14:25:27;8.17;;;2.53;;
9860;SDS011;4969;52.304;4.968;2024-01-15T14:27:54;7.93;;;2.30;;
9860;SDS011;4969;52.304;4.968;2024-01-15T14:30:20;8.13;;;2.57;;
9860;SDS011;4969;52.304;4.968;2024-01-15T14:32:47;10.37;;;2.97;;
9860;SDS011;4969;52.304;4.968;2024-01-15T14:35:15;5.77;;;2.07;;
9860;SDS011;4969;52.304;4.968;2024-01-15T14:37:42;7.20;;;2.03;;
9860;SDS011;4969;52.304;4.968;2024-01-15T14:40:09;9.23;;;2.50;;
9860;SDS011;4969;52.304;4.968;2024-01-15T14:42:37;7.10;;;2.37;;
9860;SDS011;4969;52.304;4.968;2024-01-15T14:45:03;7.33;;;2.20;;
9860;SDS011;4969;52.304;4.968;2024-01-15T14:47:36;5.63;;;1.80;;
9860;SDS011;4969;52.304;4.968;2024-01-15T14:50:03;9.23;;;2.30;;
9860;SDS011;4969;52.304;4.968;2024-01-15T14:52:32;5.90;;;1.70;;
9860;SDS011;4969;52.304;4.968;2024-01-15T14:54:59;5.80;;;2.17;;
9860;SDS011;4969;52.304;4.968;2024-01-15T14:57:25;7.13;;;1.63;;
9860;SDS011;4969;52.304;4.968;2024-01-15T14:59:52;5.33;;;1.77;;
9860;SDS011;4969;52.304;4.968;2024-01-15T15:02:18;7.50;;;2.00;;
9860;SDS011;4969;52.304;4.968;2024-01-15T15:04:45;6.53;;;2.20;;
9860;SDS011;4969;52.304;4.968;2024-01-15T15:07:12;6.87;;;1.97;;
9860;SDS011;4969;52.304;4.968;2024-01-15T15:09:40;5.17;;;1.77;;
9860;SDS011;4969;52.304;4.968;2024-01-15T15:12:07;6.00;;;1.97;;
9860;SDS011;4969;52.304;4.968;2024-01-15T15:14:34;4.37;;;1.90;;
9860;SDS011;4969;52.304;4.968;2024-01-15T15:17:03;5.17;;;1.80;;
9860;SDS011;4969;52.304;4.968;2024-01-15T15:19:30;6.47;;;1.83;;
9860;SDS011;4969;52.304;4.968;2024-01-15T15:21:57;6.47;;;2.30;;